createdAt,value
2022-10-05T03:02:34.209Z,11.62
2022-10-05T03:05:32.282Z,11.70
2022-10-05T03:08:15.322Z,11.68
2022-10-05T03:11:04.152Z,11.73
2022-10-05T03:14:02.824Z,11.78
2022-10-05T03:16:49.496Z,11.72
2022-10-05T03:19:31.711Z,11.70
2022-10-05T03:22:04.708Z,11.69
2022-10-05T03:24:45.736Z,11.72
2022-10-05T03:27:25.723Z,11.71
2022-10-05T03:30:05.168Z,11.74
2022-10-05T03:32:56.732Z,11.74
2022-10-05T03:35:28.660Z,11.73
2022-10-05T03:38:33.704Z,11.74
2022-10-05T03:41:24.248Z,11.74
2022-10-05T03:43:57.773Z,11.76
2022-10-05T03:46:39.513Z,11.74
2022-10-05T03:49:15.791Z,11.75
2022-10-05T03:51:47.479Z,11.84
2022-10-05T03:54:31.368Z,11.76
2022-10-05T03:57:07.408Z,11.79
2022-10-05T03:59:42.188Z,11.86
2022-10-05T04:02:29.733Z,11.93
2022-10-05T04:05:37.395Z,11.94
2022-10-05T04:08:22.412Z,11.92
2022-10-05T04:10:54.876Z,12.00
2022-10-05T04:13:30.467Z,12.03
2022-10-05T04:16:12.493Z,11.94
2022-10-05T04:18:46.096Z,12.05
2022-10-05T04:21:23.486Z,12.03
2022-10-05T04:24:11.024Z,12.07
2022-10-05T04:26:46.358Z,12.12
2022-10-05T04:29:24.578Z,12.12
2022-10-05T04:32:29.108Z,12.11
2022-10-05T04:35:11.687Z,12.12
2022-10-05T04:38:17.772Z,12.09
2022-10-05T04:41:07.633Z,12.11
2022-10-05T04:43:55.045Z,12.06
2022-10-05T04:46:45.364Z,12.05
2022-10-05T04:49:48.834Z,11.97
2022-10-05T04:52:37.944Z,11.98
2022-10-05T04:55:30.964Z,11.95
2022-10-05T04:58:30.034Z,11.98
2022-10-05T05:01:16.433Z,11.86
2022-10-05T05:04:02.511Z,11.93
2022-10-05T05:07:03.138Z,11.91
2022-10-05T05:09:48.706Z,11.89
2022-10-05T05:12:28.434Z,11.96
2022-10-05T05:15:47.273Z,12.01
2022-10-05T05:18:33.412Z,11.98
2022-10-05T05:21:33.497Z,12.01
2022-10-05T05:24:03.482Z,12.02
2022-10-05T05:27:00.850Z,11.99
2022-10-05T05:29:49.893Z,11.99
2022-10-05T05:32:42.105Z,11.97
2022-10-05T05:35:47.235Z,11.96
2022-10-05T05:38:33.164Z,11.97
2022-10-05T05:41:21.463Z,11.95
2022-10-05T05:44:10.787Z,11.91
2022-10-05T05:47:02.359Z,11.86
2022-10-05T05:49:47.700Z,11.89
2022-10-05T05:52:23.110Z,11.91
2022-10-05T05:54:54.698Z,11.97
2022-10-05T05:58:03.235Z,11.92
2022-10-05T06:00:39.347Z,11.91
2022-10-05T06:03:27.856Z,11.98
2022-10-05T06:05:59.997Z,11.96
2022-10-05T06:08:40.336Z,11.95
2022-10-05T06:11:47.979Z,11.83
2022-10-05T06:14:33.842Z,11.95
2022-10-05T06:17:16.190Z,11.98
2022-10-05T06:19:45.933Z,11.99
2022-10-05T06:22:24.981Z,11.91
2022-10-05T06:25:29.102Z,12.09
2022-10-05T06:28:18.569Z,12.11
2022-10-05T06:31:07.940Z,12.13
2022-10-05T06:33:59.862Z,12.18
2022-10-05T06:36:39.896Z,12.27
2022-10-05T06:39:37.972Z,12.23
2022-10-05T06:42:17.235Z,12.33
2022-10-05T06:45:37.903Z,12.37
2022-10-05T06:48:32.691Z,12.45
2022-10-05T06:51:38.448Z,12.50
2022-10-05T06:54:31.806Z,12.56
2022-10-05T06:57:25.240Z,12.58
2022-10-05T07:00:07.785Z,12.69
2022-10-05T07:02:48.672Z,12.64
2022-10-05T07:05:34.849Z,12.75
2022-10-05T07:08:18.273Z,12.76
2022-10-05T07:11:05.310Z,12.86
2022-10-05T07:13:55.090Z,12.96
2022-10-05T07:16:26.813Z,13.10
2022-10-05T07:19:10.680Z,13.03
2022-10-05T07:21:44.207Z,13.19
2022-10-05T07:24:36.265Z,13.20
2022-10-05T07:27:40.948Z,13.31
2022-10-05T07:30:11.811Z,13.20
2022-10-05T07:33:06.482Z,13.38
2022-10-05T07:36:12.769Z,13.46
2022-10-05T07:38:54.799Z,13.51
2022-10-05T07:41:54.353Z,13.66
2022-10-05T07:44:29.190Z,13.65
2022-10-05T07:46:58.920Z,13.58
2022-10-05T07:49:52.362Z,13.74
2022-10-05T07:52:34.684Z,13.76
2022-10-05T07:55:22.901Z,13.84
2022-10-05T07:58:32.351Z,13.93
2022-10-05T08:01:36.467Z,13.90
2022-10-05T08:04:31.586Z,14.05
2022-10-05T08:07:14.302Z,14.08
2022-10-05T08:09:42.569Z,14.10
2022-10-05T08:12:38.275Z,14.30
2022-10-05T08:15:28.963Z,14.36
2022-10-05T08:18:03.380Z,14.41
2022-10-05T08:20:55.280Z,14.49
2022-10-05T08:23:34.669Z,14.47
2022-10-05T08:26:17.234Z,14.62
2022-10-05T08:29:26.623Z,14.62
2022-10-05T08:32:02.938Z,14.73
2022-10-05T08:34:33.671Z,14.86
2022-10-05T08:37:09.833Z,14.70
2022-10-05T08:39:41.161Z,14.84
2022-10-05T08:42:27.643Z,15.06
2022-10-05T08:45:18.219Z,15.11
2022-10-05T08:48:10.442Z,15.10
2022-10-05T08:50:59.425Z,15.17
2022-10-05T08:53:58.145Z,15.19
2022-10-05T08:56:51.596Z,15.34
2022-10-05T08:59:37.385Z,15.41
2022-10-05T09:02:17.243Z,15.44
2022-10-05T09:05:12.456Z,15.52
2022-10-05T09:07:57.834Z,15.62
2022-10-05T09:10:44.701Z,15.62
2022-10-05T09:13:43.090Z,15.74
2022-10-05T09:16:24.811Z,15.76
2022-10-05T09:19:13.755Z,15.80
2022-10-05T09:21:49.474Z,15.76
2022-10-05T09:24:27.309Z,15.81
2022-10-05T09:27:03.842Z,15.90
2022-10-05T09:29:52.038Z,16.05
2022-10-05T09:32:43.954Z,16.07
2022-10-05T09:35:14.397Z,15.87
2022-10-05T09:38:08.529Z,16.16
2022-10-05T09:41:04.231Z,16.27
2022-10-05T09:43:49.748Z,16.45
2022-10-05T09:46:35.311Z,16.39
2022-10-05T09:49:38.172Z,16.45
2022-10-05T09:52:25.704Z,16.58
2022-10-05T09:55:11.528Z,16.67
2022-10-05T09:57:50.846Z,16.73
2022-10-05T10:00:38.653Z,16.86
2022-10-05T10:03:39.521Z,16.87
2022-10-05T10:06:31.128Z,17.12
2022-10-05T10:09:14.022Z,17.30
2022-10-05T10:12:18.826Z,17.37
2022-10-05T10:15:11.237Z,17.43
2022-10-05T10:18:23.169Z,17.42
2022-10-05T10:21:11.103Z,17.64
2022-10-05T10:24:00.494Z,17.88
2022-10-05T10:26:53.933Z,18.05
2022-10-05T10:29:39.910Z,18.23
2022-10-05T10:32:29.309Z,18.50
2022-10-05T10:35:19.622Z,18.63
2022-10-05T10:37:52.727Z,18.78
2022-10-05T10:40:38.684Z,18.92
2022-10-05T10:43:28.821Z,19.14
2022-10-05T10:46:33.567Z,19.31
2022-10-05T10:49:28.262Z,19.25
2022-10-05T10:52:20.327Z,19.41
2022-10-05T10:55:08.774Z,19.39
2022-10-05T10:58:03.643Z,19.67
2022-10-05T11:00:48.929Z,19.90
2022-10-05T11:03:37.192Z,20.13
2022-10-05T11:06:10.761Z,20.12
2022-10-05T11:08:59.291Z,20.21
2022-10-05T11:12:00.148Z,20.36
2022-10-05T11:14:46.491Z,20.55
2022-10-05T11:17:33.675Z,20.60
2022-10-05T11:20:21.191Z,20.57
2022-10-05T11:23:00.332Z,20.89
2022-10-05T11:25:44.587Z,21.03
2022-10-05T11:28:27.651Z,21.22
2022-10-05T11:30:57.785Z,21.44
2022-10-05T11:34:02.753Z,21.48
2022-10-05T11:36:56.303Z,21.50
2022-10-05T11:39:40.197Z,21.53
2022-10-05T11:42:10.733Z,21.76
2022-10-05T11:45:19.501Z,21.84
2022-10-05T11:47:52.453Z,21.95
2022-10-05T11:50:22.534Z,22.18
2022-10-05T11:53:29.853Z,22.19
2022-10-05T11:56:24.710Z,22.26
2022-10-05T11:58:51.839Z,22.37
2022-10-05T12:01:56.249Z,22.41
2022-10-05T12:04:29.460Z,22.46
2022-10-05T12:07:04.391Z,22.70
2022-10-05T12:10:07.201Z,22.66
2022-10-05T12:12:44.801Z,22.73
2022-10-05T12:15:27.126Z,22.57
2022-10-05T12:18:08.528Z,22.77
2022-10-05T12:21:15.363Z,22.85
2022-10-05T12:24:25.991Z,22.89
2022-10-05T12:27:01.187Z,22.99
2022-10-05T12:29:37.377Z,23.10
2022-10-05T12:32:21.571Z,23.22
2022-10-05T12:35:01.071Z,23.38
2022-10-05T12:37:52.770Z,23.48
2022-10-05T12:40:35.131Z,23.55
2022-10-05T12:43:19.445Z,23.77
2022-10-05T12:46:00.553Z,23.68
2022-10-05T12:48:49.483Z,23.78
2022-10-05T12:51:22.822Z,23.64
2022-10-05T12:53:58.269Z,23.79
2022-10-05T12:57:03.068Z,23.71
2022-10-05T12:59:45.380Z,23.65
2022-10-05T13:02:55.164Z,23.58
2022-10-05T13:06:02.730Z,23.75
2022-10-05T13:08:57.792Z,23.77
2022-10-05T13:11:38.121Z,23.74
2022-10-05T13:14:38.334Z,23.74
2022-10-05T13:17:12.011Z,23.99
2022-10-05T13:19:44.853Z,23.88
2022-10-05T13:22:34.721Z,24.04
2022-10-05T13:25:14.199Z,23.89
2022-10-05T13:27:47.460Z,23.88
2022-10-05T13:30:20.830Z,23.78
2022-10-05T13:32:57.720Z,23.90
2022-10-05T13:35:43.585Z,23.97
2022-10-05T13:38:55.784Z,23.98
2022-10-05T13:41:41.004Z,23.93
2022-10-05T13:44:24.996Z,23.89
2022-10-05T13:47:07.090Z,23.90
2022-10-05T13:49:48.481Z,23.86
2022-10-05T13:52:39.982Z,23.83
2022-10-05T13:55:23.073Z,23.79
2022-10-05T13:57:57.789Z,23.87
2022-10-05T14:00:27.349Z,23.70
2022-10-05T14:02:57.615Z,23.93
2022-10-05T14:05:28.181Z,24.03
2022-10-05T14:08:03.398Z,24.03
2022-10-05T14:10:37.638Z,23.98
2022-10-05T14:13:19.705Z,24.09
2022-10-05T14:16:13.111Z,24.08
2022-10-05T14:19:07.468Z,24.06
2022-10-05T14:22:08.035Z,23.93
2022-10-05T14:24:44.012Z,23.94
2022-10-05T14:27:25.222Z,24.04
2022-10-05T14:30:00.412Z,24.08
2022-10-05T14:32:33.521Z,24.03
2022-10-05T14:35:15.996Z,23.98
2022-10-05T14:37:51.618Z,23.75
2022-10-05T14:40:39.196Z,23.52
2022-10-05T14:43:33.047Z,23.45
2022-10-05T14:46:05.489Z,23.28
2022-10-05T14:48:43.622Z,23.17
2022-10-05T14:51:15.154Z,23.17
2022-10-05T14:53:55.938Z,22.96
2022-10-05T14:56:44.583Z,22.90
2022-10-05T14:59:49.640Z,22.61
2022-10-05T15:02:51.800Z,22.56
2022-10-05T15:05:43.948Z,22.52
2022-10-05T15:08:39.287Z,22.41
2022-10-05T15:11:09.373Z,22.31
2022-10-05T15:13:42.855Z,22.29
2022-10-05T15:16:19.562Z,21.95
2022-10-05T15:19:04.694Z,21.94
2022-10-05T15:22:14.368Z,21.80
2022-10-05T15:24:48.541Z,21.66
2022-10-05T15:27:36.780Z,21.61
2022-10-05T15:30:11.889Z,21.57
2022-10-05T15:33:04.616Z,21.54
2022-10-05T15:35:48.591Z,21.56
2022-10-05T15:38:25.808Z,21.43
2022-10-05T15:41:24.795Z,21.43
2022-10-05T15:44:02.170Z,21.32
2022-10-05T15:46:45.162Z,21.37
2022-10-05T15:49:22.841Z,21.48
2022-10-05T15:52:13.599Z,21.40
2022-10-05T15:55:08.594Z,21.36
2022-10-05T15:57:55.038Z,21.35
2022-10-05T16:00:25.479Z,21.21
2022-10-05T16:03:41.818Z,21.28
2022-10-05T16:06:57.697Z,21.24
2022-10-05T16:09:47.090Z,21.03
2022-10-05T16:12:39.174Z,20.99
2022-10-05T16:15:17.090Z,20.84
2022-10-05T16:18:15.505Z,20.84
2022-10-05T16:21:01.371Z,20.77
2022-10-05T16:23:54.911Z,20.65
2022-10-05T16:26:32.808Z,20.59
2022-10-05T16:29:15.504Z,20.52
2022-10-05T16:32:06.123Z,20.37
2022-10-05T16:34:51.204Z,20.27
2022-10-05T16:37:24.417Z,20.24
2022-10-05T16:40:02.680Z,20.00
2022-10-05T16:42:53.898Z,20.08
2022-10-05T16:45:53.453Z,19.92
2022-10-05T16:48:29.421Z,19.79
2022-10-05T16:50:59.701Z,19.79
2022-10-05T16:53:51.936Z,19.66
2022-10-05T16:56:25.338Z,19.54
2022-10-05T16:59:01.349Z,19.36
2022-10-05T17:02:01.626Z,19.24
2022-10-05T17:04:41.171Z,19.20
2022-10-05T17:07:18.409Z,19.19
2022-10-05T17:10:17.826Z,19.13
2022-10-05T17:13:11.868Z,19.03
2022-10-05T17:15:39.227Z,18.90
2022-10-05T17:18:30.089Z,18.79
2022-10-05T17:21:15.687Z,18.70
2022-10-05T17:23:59.129Z,18.56
2022-10-05T17:26:33.606Z,18.60
2022-10-05T17:29:16.174Z,18.48
2022-10-05T17:32:03.067Z,18.50
2022-10-05T17:34:34.557Z,18.32
2022-10-05T17:37:41.438Z,18.35
2022-10-05T17:40:33.177Z,18.22
2022-10-05T17:43:25.555Z,18.19
2022-10-05T17:45:57.387Z,18.11
2022-10-05T17:49:02.837Z,18.02
2022-10-05T17:51:48.811Z,17.99
2022-10-05T17:54:51.112Z,17.95
2022-10-05T17:57:29.417Z,17.75
2022-10-05T18:00:01.861Z,17.78
2022-10-05T18:02:38.722Z,17.71
2022-10-05T18:05:16.310Z,17.64
2022-10-05T18:07:51.044Z,17.58
2022-10-05T18:10:34.777Z,17.50
2022-10-05T18:13:04.872Z,17.36
2022-10-05T18:15:32.047Z,17.42
2022-10-05T18:18:33.140Z,17.36
2022-10-05T18:21:12.323Z,17.29
2022-10-05T18:23:47.526Z,17.06
2022-10-05T18:26:43.831Z,17.10
2022-10-05T18:29:48.676Z,17.09
2022-10-05T18:32:43.064Z,16.90
2022-10-05T18:35:43.181Z,16.68
2022-10-05T18:38:23.713Z,16.86
2022-10-05T18:41:19.561Z,16.81
2022-10-05T18:44:09.507Z,16.73
2022-10-05T18:46:52.681Z,16.71
2022-10-05T18:49:33.663Z,16.59
2022-10-05T18:52:22.316Z,16.47
2022-10-05T18:55:07.995Z,16.42
2022-10-05T18:57:37.941Z,16.35
2022-10-05T19:00:17.301Z,16.27
2022-10-05T19:02:53.627Z,16.27
2022-10-05T19:05:47.425Z,16.23
2022-10-05T19:08:34.527Z,16.09
2022-10-05T19:11:18.472Z,15.97
2022-10-05T19:14:23.302Z,16.00
2022-10-05T19:16:59.232Z,15.96
2022-10-05T19:19:42.983Z,15.96
2022-10-05T19:22:28.154Z,15.86
2022-10-05T19:24:58.298Z,15.96
2022-10-05T19:28:07.970Z,15.93
2022-10-05T19:30:54.709Z,15.76
2022-10-05T19:33:37.861Z,15.69
2022-10-05T19:36:26.112Z,15.78
2022-10-05T19:39:38.513Z,15.65
2022-10-05T19:42:26.629Z,15.57
2022-10-05T19:45:29.374Z,15.62
2022-10-05T19:48:34.261Z,15.51
2022-10-05T19:51:05.751Z,15.42
2022-10-05T19:53:46.146Z,15.40
2022-10-05T19:56:22.489Z,15.38
2022-10-05T19:58:52.111Z,15.46
2022-10-05T20:01:35.634Z,15.37
2022-10-05T20:04:02.923Z,15.37
2022-10-05T20:06:31.429Z,15.27
2022-10-05T20:09:20.125Z,15.26
2022-10-05T20:11:57.564Z,15.22
2022-10-05T20:14:33.197Z,15.23
2022-10-05T20:17:47.747Z,15.21
2022-10-05T20:20:47.210Z,15.13
2022-10-05T20:23:22.635Z,15.02
2022-10-05T20:26:09.595Z,15.11
2022-10-05T20:28:39.657Z,15.03
2022-10-05T20:31:08.332Z,14.88
2022-10-05T20:33:35.720Z,15.01
2022-10-05T20:36:05.675Z,14.99
2022-10-05T20:38:40.659Z,14.97
2022-10-05T20:41:08.678Z,14.96
2022-10-05T20:43:39.341Z,14.97
2022-10-05T20:46:07.820Z,15.03
2022-10-05T20:48:45.061Z,15.04
2022-10-05T20:51:13.309Z,15.11
2022-10-05T20:53:40.915Z,15.13
2022-10-05T20:56:08.359Z,15.08
2022-10-05T20:58:35.503Z,15.09
2022-10-05T21:01:23.458Z,15.11
2022-10-05T21:03:53.632Z,15.09
2022-10-05T21:06:28.350Z,15.09
2022-10-05T21:08:55.865Z,14.98
2022-10-05T21:11:23.038Z,15.11
2022-10-05T21:13:51.463Z,15.16
2022-10-05T21:16:25.108Z,15.17
2022-10-05T21:18:53.914Z,15.22
2022-10-05T21:21:21.146Z,15.25
2022-10-05T21:23:49.229Z,15.31
2022-10-05T21:26:16.720Z,15.27
2022-10-05T21:28:44.074Z,15.34
2022-10-05T21:31:11.501Z,15.38
2022-10-05T21:33:38.726Z,15.41
2022-10-05T21:36:06.095Z,15.44
2022-10-05T21:38:33.388Z,15.51
2022-10-05T21:41:00.840Z,15.54
2022-10-05T21:43:32.437Z,15.55
2022-10-05T21:46:03.570Z,15.54
2022-10-05T21:48:34.778Z,15.62
2022-10-05T21:51:04.416Z,15.60
2022-10-05T21:53:36.854Z,15.51
2022-10-05T21:56:10.240Z,15.61
2022-10-05T21:58:44.621Z,15.65
2022-10-05T22:01:12.777Z,15.70
2022-10-05T22:03:40.152Z,15.71
2022-10-05T22:06:08.017Z,15.75
2022-10-05T22:08:35.882Z,15.77
2022-10-05T22:11:14.107Z,15.82
2022-10-05T22:13:49.459Z,15.82
2022-10-05T22:16:19.729Z,15.88
2022-10-05T22:18:47.574Z,15.85
2022-10-05T22:21:15.059Z,15.89
2022-10-05T22:23:44.059Z,15.90
2022-10-05T22:26:15.091Z,15.92
2022-10-05T22:28:43.092Z,15.93
2022-10-05T22:31:12.942Z,15.97
2022-10-05T22:33:41.185Z,15.98
2022-10-05T22:36:08.950Z,15.98
2022-10-05T22:38:36.090Z,16.03
2022-10-05T22:41:04.079Z,15.96
2022-10-05T22:43:31.127Z,16.06
2022-10-05T22:45:58.675Z,16.10
2022-10-05T22:48:26.430Z,16.05
2022-10-05T22:50:53.702Z,16.11
2022-10-05T22:53:20.864Z,16.09
2022-10-05T22:55:48.139Z,16.11
2022-10-05T22:58:15.316Z,16.15
